Time;durP1;ratioP1;P1;durP2;ratioP2;P2;SDS_P1;SDS_P2;PMS_P1;PMS_P2;Temp;Humidity;BMP_temperature;BMP_pressure;BME280_temperature;BME280_humidity;BME280_pressure;Samples;Min_cycle;Max_cycle;Signal;HPM_P1;HPM_P2
2021/09/06 00:02:07;;;;;;;5.33;3.30;;;14.90;99.90;;;;;;4945378;29;20474;-85
2021/09/06 00:05:09;;;;;;;3.73;3.43;;;14.90;99.90;;;;;;4911957;29;20461;-84
2021/09/06 00:07:59;;;;;;;4.70;3.97;;;15.00;99.90;;;;;;4946293;29;20482;-84
2021/09/06 00:11:28;;;;;;;4.73;3.67;;;15.00;99.90;;;;;;4946778;29;20590;-84
2021/09/06 00:14:29;;;;;;;5.30;4.50;;;14.80;99.90;;;;;;4930922;29;20451;-85
2021/09/06 00:21:19;;;;;;;6.43;4.33;;;14.90;99.90;;;;;;4943443;29;20507;-85
2021/09/06 00:24:39;;;;;;;;;;;;;;;;;;;;;
2021/09/06 00:27:45;;;;;;;;;;;;;;;;;;;;;
2021/09/06 00:30:58;;;;;;;5.03;3.50;;;14.70;99.90;;;;;;4944270;29;20436;-84
2021/09/06 00:37:02;;;;;;;4.47;3.93;;;14.60;99.90;;;;;;4942118;29;20463;-84
2021/09/06 00:43:21;;;;;;;4.00;3.37;;;14.60;99.90;;;;;;4941179;29;20467;-84
2021/09/06 00:46:27;;;;;;;3.50;3.20;;;14.60;99.90;;;;;;4946520;29;20459;-84
2021/09/06 00:58:52;;;;;;;5.20;3.40;;;14.40;99.90;;;;;;4924354;29;20511;-84
2021/09/06 01:04:22;;;;;;;4.30;3.90;;;14.50;99.90;;;;;;4942735;29;20428;-84
2021/09/06 01:10:17;;;;;;;3.70;3.30;;;14.30;99.90;;;;;;4942315;29;20455;-84
2021/09/06 01:20:07;;;;;;;5.03;4.20;;;14.40;99.90;;;;;;4625252;27;15032154;-85
2021/09/06 01:25:47;;;;;;;6.10;4.53;;;14.40;99.90;;;;;;5159206;27;20471;-85
2021/09/06 01:34:46;;;;;;;4.63;4.23;;;14.20;99.90;;;;;;5136929;28;20506;-85
2021/09/06 01:40:15;;;;;;;6.00;5.23;;;14.20;99.90;;;;;;5146436;28;20471;-85
2021/09/06 01:45:46;;;;;;;5.90;4.10;;;14.00;99.90;;;;;;5135119;28;20944;-84
2021/09/06 01:51:14;;;;;;;3.77;3.40;;;13.90;99.90;;;;;;5118938;28;20617;-84
2021/09/06 01:54:33;;;;;;;4.30;3.90;;;13.90;99.90;;;;;;5140557;28;20953;-84
2021/09/06 02:00:34;;;;;;;4.50;3.67;;;14.00;99.90;;;;;;5144681;28;20443;-84
2021/09/06 02:03:15;;;;;;;4.23;3.83;;;13.80;99.90;;;;;;5148775;27;20442;-84
2021/09/06 02:05:58;;;;;;;4.47;4.07;;;14.20;99.90;;;;;;5152988;27;20456;-84
2021/09/06 02:08:44;;;;;;;6.00;4.20;;;13.90;99.90;;;;;;5141968;28;20454;-84
2021/09/06 02:11:37;;;;;;;4.23;3.83;;;13.90;99.90;;;;;;5139648;28;20422;-85
2021/09/06 02:14:34;;;;;;;4.67;4.00;;;13.90;99.90;;;;;;5137397;28;20466;-84
2021/09/06 02:17:20;;;;;;;5.73;3.87;;;13.80;99.90;;;;;;5136744;28;20477;-84
2021/09/06 02:23:36;;;;;;;;;;;;;;;;;;;;;
2021/09/06 02:26:37;;;;;;;4.43;4.03;;;13.70;99.90;;;;;;5126942;28;20542;-84
2021/09/06 02:29:31;;;;;;;4.80;3.80;;;13.70;99.90;;;;;;5103478;28;20981;-84
2021/09/06 02:35:32;;;;;;;4.13;3.83;;;13.70;99.90;;;;;;5114377;28;20424;-85
2021/09/06 02:38:25;;;;;;;5.00;4.20;;;13.70;99.90;;;;;;5114698;28;20574;-84
2021/09/06 02:41:43;;;;;;;4.37;3.97;;;13.70;99.90;;;;;;5118550;28;20435;-84
2021/09/06 02:47:28;;;;;;;4.93;4.43;;;13.70;99.90;;;;;;5124494;28;20839;-85
2021/09/06 02:50:29;;;;;;;6.50;3.93;;;13.60;99.90;;;;;;5126014;28;20508;-84
2021/09/06 02:57:07;;;;;;;4.60;3.90;;;13.60;99.90;;;;;;5119557;28;20436;-84
2021/09/06 03:02:41;;;;;;;4.27;3.83;;;;;;;;;;5123042;28;20705;-84
2021/09/06 03:05:21;;;;;;;4.80;4.20;;;13.50;99.90;;;;;;5125064;28;20777;-85
2021/09/06 03:10:56;;;;;;;5.70;4.70;;;13.40;99.90;;;;;;5128591;28;20506;-84
2021/09/06 03:20:09;;;;;;;6.40;4.33;;;;;;;;;;5059625;28;20495;-84
2021/09/06 03:26:14;;;;;;;5.10;4.00;;;13.30;99.90;;;;;;5118667;28;20475;-85
2021/09/06 03:29:18;;;;;;;4.37;3.97;;;15.20;99.90;;;;;;5121299;28;20470;-85
2021/09/06 03:40:41;;;;;;;4.77;4.27;;;13.30;99.90;;;;;;5116719;28;20500;-84
2021/09/06 03:46:13;;;;;;;8.53;4.87;;;13.10;99.90;;;;;;5117971;28;20826;-85
2021/09/06 03:49:32;;;;;;;8.02;4.80;;;13.10;99.90;;;;;;5120242;28;20935;-84
2021/09/06 03:58:51;;;;;;;4.70;4.00;;;13.10;99.90;;;;;;5114720;28;20489;-84
2021/09/06 04:04:50;;;;;;;8.03;5.37;;;12.80;99.90;;;;;;5033337;28;20423;-85
2021/09/06 04:13:42;;;;;;;5.00;4.50;;;12.90;99.90;;;;;;5082771;28;20529;-85
2021/09/06 04:16:31;;;;;;;6.27;4.80;;;12.90;99.90;;;;;;5123669;28;20497;-85
2021/09/06 04:34:17;;;;;;;5.40;4.20;;;12.80;99.90;;;;;;5126802;28;20478;-84
2021/09/06 04:36:48;;;;;;;4.63;4.10;;;;;;;;;;5137697;28;20440;-83
2021/09/06 04:42:31;;;;;;;5.47;4.70;;;12.70;99.90;;;;;;5129929;28;20439;-85
2021/09/06 04:45:42;;;;;;;6.43;4.40;;;13.00;99.90;;;;;;5125950;28;20485;-84
2021/09/06 04:48:55;;;;;;;6.87;5.00;;;12.70;99.90;;;;;;5104410;28;20591;-84
2021/09/06 04:52:08;;;;;;;9.60;4.90;;;12.70;99.90;;;;;;5123473;28;20475;-84
2021/09/06 05:04:53;;;;;;;6.87;5.03;;;12.80;99.90;;;;;;5037404;28;20494;-84
2021/09/06 05:17:58;;;;;;;;;;;;;;;;;;;;;
2021/09/06 05:23:36;;;;;;;7.13;6.43;;;12.70;99.90;;;;;;5116965;28;20443;-83
2021/09/06 05:29:32;;;;;;;6.27;5.67;;;12.60;99.90;;;;;;5062408;22;20487;-84
2021/09/06 05:49:24;;;;;;;9.80;6.13;;;12.60;99.90;;;;;;4922778;29;20446;-85
2021/09/06 06:10:32;;;;;;;10.87;6.30;;;12.60;99.90;;;;;;5046182;28;20475;-84
2021/09/06 06:13:14;;;;;;;9.60;7.63;;;;;;;;;;5041837;28;20459;-84
2021/09/06 06:15:40;;;;;;;14.53;8.20;;;12.70;99.90;;;;;;5066779;22;20610;-81
2021/09/06 06:18:07;;;;;;;22.13;15.53;;;12.60;99.90;;;;;;5082207;28;20445;-83
2021/09/06 06:20:34;;;;;;;10.77;9.77;;;12.80;99.90;;;;;;5082043;28;20491;-82
2021/09/06 06:23:00;;;;;;;13.13;9.73;;;12.90;99.90;;;;;;5084030;28;20448;-83
2021/09/06 06:25:28;;;;;;;15.80;9.70;;;12.90;99.90;;;;;;5085585;28;20461;-81
2021/09/06 06:27:55;;;;;;;16.57;11.50;;;12.90;99.90;;;;;;5089811;28;20475;-82
2021/09/06 06:30:26;;;;;;;24.87;16.57;;;13.00;99.90;;;;;;5086213;28;20932;-83
2021/09/06 06:32:52;;;;;;;29.50;21.60;;;13.00;99.90;;;;;;5085016;28;20437;-83
2021/09/06 06:35:19;;;;;;;37.00;27.20;;;13.00;99.90;;;;;;5082131;28;20787;-82
2021/09/06 06:37:45;;;;;;;34.73;25.90;;;13.10;99.90;;;;;;5081820;28;20472;-82
2021/09/06 06:40:14;;;;;;;25.63;20.10;;;13.30;99.90;;;;;;5085917;28;20489;-82
2021/09/06 06:42:42;;;;;;;20.20;14.60;;;13.40;99.90;;;;;;5081340;28;20939;-82
2021/09/06 06:45:10;;;;;;;16.50;13.07;;;13.60;99.90;;;;;;5081435;28;20441;-81
2021/09/06 06:47:36;;;;;;;11.43;9.27;;;14.10;99.90;;;;;;5081455;28;20445;-83
2021/09/06 06:50:03;;;;;;;12.47;8.80;;;13.80;99.90;;;;;;5081211;28;20472;-83
2021/09/06 06:52:30;;;;;;;8.40;7.43;;;14.00;99.90;;;;;;5086571;28;20453;-82
2021/09/06 06:54:57;;;;;;;7.50;5.80;;;13.90;99.90;;;;;;5100738;28;20421;-80
2021/09/06 06:57:23;;;;;;;7.27;5.50;;;14.00;99.90;;;;;;5091374;28;20449;-83
2021/09/06 06:59:51;;;;;;;9.30;5.60;;;14.10;99.90;;;;;;5095480;28;20507;-82
2021/09/06 07:02:19;;;;;;;6.93;6.20;;;14.20;99.90;;;;;;5099169;28;20471;-82
2021/09/06 07:04:45;;;;;;;8.30;6.10;;;14.30;99.90;;;;;;5097674;28;20434;-82
2021/09/06 07:07:12;;;;;;;11.17;5.73;;;14.30;99.90;;;;;;5097457;28;20454;-80
2021/09/06 07:09:39;;;;;;;7.70;5.70;;;14.40;99.90;;;;;;5098013;28;20449;-84
2021/09/06 07:12:06;;;;;;;5.20;4.80;;;14.50;99.90;;;;;;5096872;28;20437;-81
2021/09/06 07:14:33;;;;;;;5.70;5.10;;;14.50;99.90;;;;;;5098973;28;20445;-82
2021/09/06 07:17:01;;;;;;;7.70;5.20;;;14.60;99.90;;;;;;5098094;28;20465;-82
2021/09/06 07:19:27;;;;;;;9.80;5.13;;;14.70;99.90;;;;;;5094119;28;20489;-82
2021/09/06 07:21:54;;;;;;;6.50;4.80;;;14.70;99.90;;;;;;5094542;28;20449;-82
2021/09/06 07:24:20;;;;;;;8.50;4.93;;;14.80;99.90;;;;;;5084431;28;20503;-85
2021/09/06 07:26:47;;;;;;;10.27;5.07;;;14.80;99.90;;;;;;5079746;28;20832;-82
2021/09/06 07:29:14;;;;;;;6.67;5.60;;;14.80;99.90;;;;;;5079103;28;20502;-82
2021/09/06 07:31:40;;;;;;;6.03;5.00;;;14.90;99.90;;;;;;5080583;28;20467;-84
2021/09/06 07:34:08;;;;;;;6.87;5.10;;;14.90;99.90;;;;;;5080952;28;20441;-84
2021/09/06 07:36:36;;;;;;;9.13;5.07;;;14.90;99.90;;;;;;5080377;28;20813;-82
2021/09/06 07:39:03;;;;;;;7.27;4.87;;;14.90;99.90;;;;;;5081868;28;20500;-85
2021/09/06 07:41:30;;;;;;;7.13;5.27;;;14.80;99.90;;;;;;5080631;28;20838;-83
2021/09/06 07:43:57;;;;;;;4.73;4.23;;;14.90;99.90;;;;;;5080218;28;20476;-83
2021/09/06 07:46:23;;;;;;;5.97;4.50;;;14.90;99.90;;;;;;5081690;28;20465;-82
2021/09/06 07:48:50;;;;;;;7.20;4.40;;;;;;;;;;5081486;28;20857;-84
2021/09/06 07:51:19;;;;;;;9.00;5.30;;;15.10;99.90;;;;;;5081514;28;21000;-80
2021/09/06 07:53:45;;;;;;;10.77;5.37;;;15.20;99.90;;;;;;5083793;28;20471;-84
2021/09/06 07:56:12;;;;;;;8.47;5.83;;;15.40;99.90;;;;;;5080175;28;20493;-84
2021/09/06 07:58:39;;;;;;;6.27;5.60;;;15.50;99.90;;;;;;5080308;28;20449;-83
2021/09/06 08:01:05;;;;;;;7.53;6.20;;;15.60;99.90;;;;;;5081398;28;20484;-82
2021/09/06 08:03:32;;;;;;;9.20;5.70;;;15.70;99.90;;;;;;5081254;28;20450;-84
2021/09/06 08:05:58;;;;;;;6.10;5.50;;;15.80;99.90;;;;;;5081167;28;20469;-84
2021/09/06 08:08:26;;;;;;;6.23;5.40;;;15.80;99.90;;;;;;5082021;28;20448;-84
2021/09/06 08:10:53;;;;;;;8.70;7.20;;;15.90;99.90;;;;;;5081871;28;20469;-83
2021/09/06 08:13:20;;;;;;;6.23;5.53;;;15.90;99.90;;;;;;5089027;28;20459;-82
2021/09/06 08:15:46;;;;;;;7.87;5.47;;;16.00;99.90;;;;;;5093529;28;20473;-82
2021/09/06 08:18:13;;;;;;;5.27;4.77;;;16.10;99.90;;;;;;5096568;28;20444;-83
2021/09/06 08:20:40;;;;;;;8.80;6.90;;;16.10;99.90;;;;;;5084524;28;20485;-84
2021/09/06 08:23:07;;;;;;;7.83;5.50;;;16.20;99.90;;;;;;5080193;28;20454;-83
2021/09/06 08:25:35;;;;;;;9.33;5.50;;;16.20;99.90;;;;;;5079989;28;20469;-82
2021/09/06 08:28:01;;;;;;;6.30;5.10;;;16.20;99.90;;;;;;5079977;28;20444;-83
2021/09/06 08:30:28;;;;;;;7.17;5.20;;;16.30;99.90;;;;;;5080549;28;20445;-82
2021/09/06 08:32:55;;;;;;;7.40;5.90;;;16.30;99.90;;;;;;5080151;28;20499;-83
2021/09/06 08:35:22;;;;;;;6.70;6.03;;;16.30;99.90;;;;;;5079337;28;20841;-84
2021/09/06 08:37:49;;;;;;;11.00;6.33;;;16.40;99.90;;;;;;5081844;28;20485;-83
2021/09/06 08:40:15;;;;;;;6.90;5.80;;;16.50;99.90;;;;;;5081171;28;20477;-83
2021/09/06 08:42:43;;;;;;;10.43;8.10;;;16.50;99.90;;;;;;5080327;28;20453;-83
2021/09/06 08:45:13;;;;;;;9.83;7.97;;;16.50;99.90;;;;;;5080714;28;20441;-83
2021/09/06 08:47:40;;;;;;;8.60;6.90;;;16.70;99.90;;;;;;5091882;28;20455;-83
2021/09/06 08:50:09;;;;;;;6.67;6.00;;;16.70;99.90;;;;;;5098075;28;20441;-83
2021/09/06 08:52:37;;;;;;;9.03;6.80;;;16.70;99.90;;;;;;5079318;28;20943;-83
2021/09/06 08:55:04;;;;;;;6.90;6.20;;;16.80;99.90;;;;;;5078780;28;20970;-83
2021/09/06 08:57:31;;;;;;;9.40;7.10;;;16.90;99.90;;;;;;5080059;28;20450;-81
2021/09/06 09:00:03;;;;;;;10.40;8.00;;;16.90;99.90;;;;;;5079639;28;20477;-82
2021/09/06 09:02:29;;;;;;;10.20;8.57;;;17.00;99.90;;;;;;5078890;28;20503;-83
2021/09/06 09:05:00;;;;;;;8.07;7.13;;;17.10;99.90;;;;;;5079480;28;20850;-81
2021/09/06 09:07:28;;;;;;;11.77;7.40;;;17.10;99.90;;;;;;5078790;28;20800;-83
2021/09/06 09:09:55;;;;;;;9.03;8.17;;;17.20;99.90;;;;;;5080083;28;20788;-83
2021/09/06 09:12:22;;;;;;;9.80;7.90;;;17.20;99.90;;;;;;5079989;28;20441;-83
2021/09/06 09:14:50;;;;;;;9.87;7.40;;;17.20;99.90;;;;;;5080429;28;20449;-84
2021/09/06 09:17:19;;;;;;;8.40;7.50;;;17.30;99.90;;;;;;5080777;28;20502;-83
2021/09/06 09:19:47;;;;;;;12.13;6.70;;;17.30;99.90;;;;;;5084375;28;20484;-83
2021/09/06 09:22:16;;;;;;;9.53;7.00;;;17.30;99.90;;;;;;5091190;28;20442;-83
2021/09/06 09:24:43;;;;;;;10.30;8.60;;;17.30;99.90;;;;;;5089560;28;20449;-83
2021/09/06 09:27:12;;;;;;;9.40;7.10;;;17.40;99.90;;;;;;5082092;28;20476;-83
2021/09/06 09:29:40;;;;;;;16.43;8.43;;;17.50;99.90;;;;;;5091934;28;20448;-80
2021/09/06 09:32:09;;;;;;;11.63;6.70;;;17.60;99.90;;;;;;5093287;28;20452;-83
2021/09/06 09:34:42;;;;;;;9.73;8.07;;;17.70;99.90;;;;;;5081634;28;20815;-83
2021/09/06 09:37:09;;;;;;;12.73;7.87;;;17.70;99.90;;;;;;5078338;28;20473;-83
2021/09/06 09:39:38;;;;;;;9.10;7.20;;;17.80;99.90;;;;;;5081544;28;20510;-83
2021/09/06 09:42:08;;;;;;;7.90;7.03;;;17.80;99.90;;;;;;5086220;28;20449;-83
2021/09/06 09:44:44;;;;;;;8.63;6.20;;;17.80;99.90;;;;;;5082632;28;20449;-82
2021/09/06 09:47:11;;;;;;;8.50;6.63;;;17.90;99.90;;;;;;5082261;28;20467;-83
2021/09/06 09:49:41;;;;;;;10.60;8.23;;;17.90;99.90;;;;;;5081377;28;20502;-82
2021/09/06 09:52:08;;;;;;;12.37;7.67;;;18.10;99.90;;;;;;5083472;28;20437;-84
2021/09/06 09:54:35;;;;;;;10.53;8.00;;;18.20;99.90;;;;;;5083315;28;20456;-83
2021/09/06 09:57:02;;;;;;;13.57;8.77;;;18.20;99.90;;;;;;5083011;28;20468;-83
2021/09/06 09:59:28;;;;;;;8.90;7.63;;;18.30;99.90;;;;;;5082965;28;20449;-84
2021/09/06 10:01:59;;;;;;;10.83;7.33;;;18.40;99.90;;;;;;5085452;28;20930;-82
2021/09/06 10:04:32;;;;;;;10.30;8.30;;;18.40;99.90;;;;;;5095194;28;20433;-82
2021/09/06 10:07:01;;;;;;;9.70;8.20;;;18.50;99.90;;;;;;5094403;28;20469;-82
2021/09/06 10:09:28;;;;;;;10.90;7.80;;;18.50;99.90;;;;;;5089011;28;20445;-84
2021/09/06 10:12:05;;;;;;;10.50;8.80;;;18.60;99.90;;;;;;5089314;28;20456;-83
2021/09/06 10:14:33;;;;;;;14.80;10.30;;;18.70;99.90;;;;;;5084447;28;20424;-82
2021/09/06 10:17:03;;;;;;;12.27;9.83;;;18.70;99.90;;;;;;5083519;28;20508;-83
2021/09/06 10:19:39;;;;;;;15.80;10.10;;;18.80;99.90;;;;;;5082532;28;20425;-83
2021/09/06 10:22:07;;;;;;;8.70;7.70;;;18.80;99.90;;;;;;5082768;28;20441;-83
2021/09/06 10:24:34;;;;;;;16.03;9.23;;;18.80;99.90;;;;;;5082080;28;20437;-82
2021/09/06 10:27:06;;;;;;;14.53;9.37;;;18.80;99.90;;;;;;5087519;28;20519;-83
2021/09/06 10:29:33;;;;;;;11.83;8.40;;;18.80;99.90;;;;;;5087061;28;20471;-83
2021/09/06 10:32:01;;;;;;;12.73;8.43;;;18.90;99.90;;;;;;5085051;28;20441;-82
2021/09/06 10:34:29;;;;;;;12.60;8.10;;;18.60;99.90;;;;;;5082129;28;20856;-82
2021/09/06 10:37:01;;;;;;;9.93;8.53;;;18.90;99.90;;;;;;5083313;28;20477;-82
2021/09/06 10:39:30;;;;;;;11.53;8.13;;;18.90;99.90;;;;;;5084045;28;20916;-82
2021/09/06 10:42:06;;;;;;;13.83;10.23;;;19.00;99.90;;;;;;5081847;28;20489;-82
2021/09/06 10:44:38;;;;;;;11.10;8.80;;;19.30;99.90;;;;;;5083929;28;20433;-83
2021/09/06 10:47:11;;;;;;;11.97;8.53;;;19.30;99.90;;;;;;5088814;28;20465;-82
2021/09/06 10:49:42;;;;;;;11.07;9.70;;;19.30;99.90;;;;;;5091483;28;20446;-83
2021/09/06 10:52:09;;;;;;;18.07;14.20;;;19.30;99.90;;;;;;5093042;28;20446;-81
2021/09/06 10:54:39;;;;;;;12.70;8.30;;;19.30;99.90;;;;;;5091651;28;20471;-82
2021/09/06 10:57:07;;;;;;;9.80;7.43;;;19.40;99.90;;;;;;5093061;28;20995;-81
2021/09/06 10:59:35;;;;;;;10.90;7.90;;;19.30;99.90;;;;;;5091957;28;20445;-80
2021/09/06 11:02:07;;;;;;;13.60;9.53;;;19.40;99.90;;;;;;5100001;28;20464;-82
2021/09/06 11:04:34;;;;;;;10.90;7.47;;;19.50;99.90;;;;;;5094943;28;20414;-84
2021/09/06 11:07:03;;;;;;;9.47;8.50;;;19.60;99.90;;;;;;5085747;28;20469;-83
2021/09/06 11:09:31;;;;;;;7.83;5.90;;;19.60;99.90;;;;;;5083389;28;20460;-83
2021/09/06 11:12:04;;;;;;;8.77;7.10;;;19.70;99.90;;;;;;5085382;28;20449;-83
2021/09/06 11:14:36;;;;;;;10.60;7.80;;;19.70;99.90;;;;;;5086650;28;20497;-82
2021/09/06 11:17:03;;;;;;;10.30;7.50;;;19.80;99.90;;;;;;5094024;28;20484;-82
2021/09/06 11:19:30;;;;;;;12.67;9.27;;;19.90;99.90;;;;;;5093562;28;20468;-81
2021/09/06 11:21:58;;;;;;;7.93;7.13;;;19.90;99.90;;;;;;5094027;28;20481;-82
2021/09/06 11:24:26;;;;;;;10.10;8.50;;;19.90;99.90;;;;;;5093815;28;20441;-81
2021/09/06 11:26:53;;;;;;;9.73;7.53;;;19.90;99.90;;;;;;5094486;28;20475;-82
2021/09/06 11:29:23;;;;;;;10.40;8.77;;;20.00;99.90;;;;;;5093919;28;20444;-81
2021/09/06 11:31:50;;;;;;;8.10;7.30;;;20.10;99.90;;;;;;5093443;28;20436;-81
2021/09/06 11:34:23;;;;;;;10.33;7.47;;;20.20;99.90;;;;;;5094049;28;20491;-83
2021/09/06 11:36:50;;;;;;;9.83;7.37;;;20.30;99.90;;;;;;5092804;28;20489;-85
2021/09/06 11:39:16;;;;;;;9.80;7.53;;;20.30;99.90;;;;;;5091661;28;20460;-81
2021/09/06 11:41:44;;;;;;;11.63;8.00;;;;;;;;;;5089603;28;20481;-82
2021/09/06 11:44:10;;;;;;;9.53;7.73;;;20.30;99.90;;;;;;5082698;28;20453;-84
2021/09/06 11:46:43;;;;;;;10.07;7.40;;;20.40;99.90;;;;;;5082411;28;20538;-84
2021/09/06 11:49:17;;;;;;;8.53;7.03;;;20.40;99.90;;;;;;5081967;28;20433;-84
2021/09/06 11:51:43;;;;;;;8.13;7.30;;;20.50;99.90;;;;;;5082244;28;20421;-83
2021/09/06 11:54:13;;;;;;;10.00;7.20;;;20.50;99.90;;;;;;5082172;28;20453;-83
2021/09/06 11:56:40;;;;;;;7.70;6.80;;;20.60;99.90;;;;;;5081601;28;20469;-84
2021/09/06 11:59:06;;;;;;;8.83;7.70;;;20.70;99.90;;;;;;5081874;28;20974;-83
2021/09/06 12:01:37;;;;;;;8.87;7.60;;;20.70;99.90;;;;;;5082212;28;20477;-83
2021/09/06 12:04:07;;;;;;;9.67;7.20;;;20.70;99.90;;;;;;5087678;28;20429;-83
2021/09/06 12:06:37;;;;;;;8.50;7.07;;;20.80;99.90;;;;;;5084360;28;20584;-85
2021/09/06 12:09:04;;;;;;;8.37;6.43;;;20.80;99.90;;;;;;5090144;28;20449;-83
2021/09/06 12:11:36;;;;;;;8.60;6.60;;;20.80;99.90;;;;;;5099075;28;20483;-82
2021/09/06 12:14:03;;;;;;;8.63;7.73;;;20.80;99.90;;;;;;5082649;28;20468;-84
2021/09/06 12:16:32;;;;;;;9.23;7.70;;;21.00;99.90;;;;;;5120110;22;20483;-87
2021/09/06 12:19:00;;;;;;;8.37;7.40;;;21.10;99.90;;;;;;5056570;28;20474;-87
2021/09/06 12:21:30;;;;;;;8.47;7.57;;;21.10;99.90;;;;;;5046155;28;20475;-87
2021/09/06 12:24:01;;;;;;;7.43;6.73;;;20.80;99.90;;;;;;5047119;28;20805;-86
2021/09/06 12:26:39;;;;;;;10.70;8.50;;;21.30;99.90;;;;;;5055923;28;20477;-86
2021/09/06 12:29:06;;;;;;;9.90;8.40;;;21.30;99.90;;;;;;5055755;28;20415;-86
2021/09/06 12:31:41;;;;;;;12.13;8.13;;;21.10;99.90;;;;;;5058803;28;20829;-86
2021/09/06 12:34:08;;;;;;;9.70;8.70;;;21.10;99.90;;;;;;5055101;28;20462;-86
2021/09/06 12:36:36;;;;;;;12.87;8.00;;;21.10;99.90;;;;;;5048006;28;20471;-86
2021/09/06 12:39:02;;;;;;;9.63;8.63;;;21.10;99.90;;;;;;5048207;28;20455;-87
2021/09/06 12:41:29;;;;;;;10.17;7.70;;;21.10;99.90;;;;;;5041750;28;20471;-87
2021/09/06 12:43:57;;;;;;;7.97;7.20;;;21.10;99.90;;;;;;5041584;28;20458;-87
2021/09/06 12:46:24;;;;;;;11.53;8.80;;;;;;;;;;5041294;28;20973;-87
2021/09/06 12:48:51;;;;;;;9.60;7.60;;;21.00;99.90;;;;;;5043354;28;20455;-86
2021/09/06 12:51:18;;;;;;;9.90;7.93;;;21.00;99.90;;;;;;5041036;28;20859;-86
2021/09/06 12:53:46;;;;;;;9.30;6.93;;;21.00;99.90;;;;;;5041314;28;20461;-86
2021/09/06 12:56:13;;;;;;;10.20;8.03;;;20.80;99.90;;;;;;5044072;28;20501;-86
2021/09/06 12:58:40;;;;;;;8.10;7.00;;;21.20;99.90;;;;;;5041676;28;20497;-86
2021/09/06 13:01:06;;;;;;;13.70;7.00;;;21.30;99.90;;;;;;5047233;28;20478;-85
2021/09/06 13:03:33;;;;;;;10.23;7.63;;;21.30;99.90;;;;;;5051262;28;20485;-85
2021/09/06 13:05:59;;;;;;;8.43;7.27;;;21.10;99.90;;;;;;5039637;28;20470;-85
2021/09/06 13:08:27;;;;;;;10.80;8.30;;;21.10;99.90;;;;;;5049260;28;20473;-86
2021/09/06 13:10:55;;;;;;;10.37;8.23;;;21.10;99.90;;;;;;5054108;28;20448;-86
2021/09/06 13:13:23;;;;;;;14.93;9.23;;;21.10;99.90;;;;;;5052082;28;20452;-87
2021/09/06 13:15:55;;;;;;;13.83;8.10;;;21.10;99.90;;;;;;5047203;28;20470;-87
2021/09/06 13:18:22;;;;;;;10.63;8.23;;;21.20;99.90;;;;;;5056365;28;20459;-87
2021/09/06 13:20:49;;;;;;;10.30;8.87;;;;;;;;;;5056851;28;20475;-86
2021/09/06 13:23:15;;;;;;;10.40;8.50;;;21.20;99.90;;;;;;5055887;28;20558;-86
2021/09/06 13:25:42;;;;;;;10.13;8.93;;;21.20;99.90;;;;;;5056384;28;20494;-87
2021/09/06 13:28:10;;;;;;;11.20;8.90;;;21.30;99.90;;;;;;5052690;28;20494;-86
2021/09/06 13:30:37;;;;;;;14.10;12.60;;;21.30;99.90;;;;;;5054281;28;20458;-86
2021/09/06 13:33:03;;;;;;;11.00;8.43;;;21.30;99.90;;;;;;5055363;28;20431;-87
2021/09/06 13:35:30;;;;;;;10.60;8.20;;;21.50;99.90;;;;;;5056032;28;20451;-86
2021/09/06 13:37:57;;;;;;;8.50;6.80;;;21.60;99.90;;;;;;5053315;28;20427;-87
2021/09/06 13:40:23;;;;;;;7.97;6.77;;;21.50;99.90;;;;;;5055581;28;20451;-87
2021/09/06 13:42:50;;;;;;;8.90;8.00;;;21.60;99.90;;;;;;5053497;28;20466;-87
2021/09/06 13:45:18;;;;;;;19.23;15.67;;;21.70;99.90;;;;;;5053262;28;20443;-86
2021/09/06 13:47:45;;;;;;;11.67;8.60;;;21.70;99.90;;;;;;5057335;28;20470;-87
2021/09/06 13:50:12;;;;;;;9.90;7.07;;;22.00;99.90;;;;;;5057152;28;20550;-88
2021/09/06 13:52:39;;;;;;;8.43;7.07;;;21.70;99.90;;;;;;5057510;28;20443;-88
2021/09/06 13:55:06;;;;;;;8.63;7.73;;;21.70;99.90;;;;;;5055540;28;20470;-87
2021/09/06 13:57:33;;;;;;;7.70;6.90;;;21.60;99.90;;;;;;5055923;28;20502;-87
2021/09/06 13:59:59;;;;;;;13.13;9.63;;;21.70;99.90;;;;;;5056509;28;20446;-88
2021/09/06 14:02:27;;;;;;;9.47;7.80;;;21.60;99.90;;;;;;5056773;28;20486;-87
2021/09/06 14:04:54;;;;;;;10.00;8.27;;;21.60;99.90;;;;;;5056102;28;20433;-86
2021/09/06 14:07:20;;;;;;;9.07;7.47;;;21.60;99.90;;;;;;5056436;28;20483;-87
2021/09/06 14:09:48;;;;;;;10.53;7.47;;;21.60;99.90;;;;;;5055168;28;20462;-87
2021/09/06 14:12:15;;;;;;;9.50;7.43;;;21.60;99.90;;;;;;5054839;28;20457;-87
2021/09/06 14:14:43;;;;;;;8.57;7.60;;;21.50;99.90;;;;;;5055806;28;20431;-87
2021/09/06 14:17:12;;;;;;;9.23;7.17;;;21.40;99.90;;;;;;5056241;28;20542;-87
2021/09/06 14:19:40;;;;;;;7.30;6.53;;;21.40;99.90;;;;;;5057189;28;20423;-86
2021/09/06 14:22:07;;;;;;;9.43;7.60;;;21.30;99.90;;;;;;5056906;28;20486;-86
2021/09/06 14:24:34;;;;;;;11.07;9.00;;;21.30;99.90;;;;;;5055499;28;20435;-86
2021/09/06 14:27:02;;;;;;;10.80;7.47;;;21.30;99.90;;;;;;5059806;28;20518;-85
2021/09/06 14:29:28;;;;;;;14.80;9.63;;;21.30;99.90;;;;;;5058937;28;20509;-87
2021/09/06 14:31:55;;;;;;;11.73;8.20;;;21.20;99.90;;;;;;5056216;28;20439;-87
2021/09/06 14:34:23;;;;;;;10.00;8.73;;;21.20;99.90;;;;;;5060024;28;20474;-87
2021/09/06 14:36:52;;;;;;;9.97;8.07;;;21.20;99.90;;;;;;5060330;28;20482;-87
2021/09/06 14:39:19;;;;;;;9.20;6.87;;;21.20;99.90;;;;;;5060429;28;20431;-87
2021/09/06 14:41:45;;;;;;;8.90;7.23;;;21.30;99.90;;;;;;5060293;28;20486;-87
2021/09/06 14:44:12;;;;;;;10.00;8.50;;;21.30;99.90;;;;;;5059182;28;20470;-86
2021/09/06 14:46:39;;;;;;;12.10;9.83;;;21.30;99.90;;;;;;5059509;28;20466;-86
2021/09/06 14:49:05;;;;;;;11.07;7.90;;;21.40;99.90;;;;;;5059689;28;20484;-87
2021/09/06 14:51:32;;;;;;;9.00;7.73;;;21.50;99.90;;;;;;5058129;28;20461;-87
2021/09/06 14:54:00;;;;;;;10.70;9.30;;;21.60;99.90;;;;;;5058601;28;20451;-88
2021/09/06 14:56:27;;;;;;;8.77;7.87;;;21.70;99.90;;;;;;5059918;28;20471;-87
2021/09/06 14:58:54;;;;;;;8.73;7.20;;;21.80;99.90;;;;;;5059446;28;20452;-86
2021/09/06 15:01:20;;;;;;;10.57;8.90;;;21.60;99.90;;;;;;5058098;28;21073;-87
2021/09/06 15:03:47;;;;;;;12.27;8.33;;;21.70;99.90;;;;;;5056661;28;20458;-87
2021/09/06 15:06:14;;;;;;;8.73;7.83;;;21.70;99.90;;;;;;5057418;28;20459;-87
2021/09/06 15:08:40;;;;;;;9.57;7.87;;;21.70;99.90;;;;;;5054651;28;20439;-86
2021/09/06 15:11:08;;;;;;;9.30;7.30;;;21.70;99.90;;;;;;5057734;28;20430;-86
2021/09/06 15:13:35;;;;;;;9.50;7.67;;;21.70;99.90;;;;;;5057846;28;20522;-87
2021/09/06 15:16:02;;;;;;;11.10;8.70;;;21.70;99.90;;;;;;5052038;28;21059;-88
2021/09/06 15:18:29;;;;;;;11.60;8.20;;;21.60;99.90;;;;;;5044489;28;20447;-88
2021/09/06 15:20:55;;;;;;;10.30;8.50;;;21.70;99.90;;;;;;5043701;28;20435;-87
2021/09/06 15:23:24;;;;;;;9.97;8.50;;;21.50;99.90;;;;;;5050366;28;20884;-87
2021/09/06 15:25:50;;;;;;;14.03;8.70;;;21.40;99.90;;;;;;5052626;28;20459;-87
2021/09/06 15:28:18;;;;;;;9.33;8.07;;;21.40;99.90;;;;;;5054174;28;20444;-87
2021/09/06 15:31:04;;;;;;;11.90;8.90;;;21.00;99.90;;;;;;5045122;28;20455;-87
2021/09/06 15:33:31;;;;;;;10.47;7.70;;;21.40;99.90;;;;;;5044408;28;20534;-87
2021/09/06 15:35:58;;;;;;;9.17;7.37;;;21.40;99.90;;;;;;5044064;28;20787;-87
2021/09/06 15:38:27;;;;;;;9.93;7.67;;;21.40;99.90;;;;;;5042880;28;20534;-87
2021/09/06 15:40:58;;;;;;;11.97;7.77;;;21.20;99.90;;;;;;5045398;28;20486;-88
2021/09/06 15:43:40;;;;;;;9.63;8.13;;;21.10;99.90;;;;;;5045706;28;20471;-87
2021/09/06 15:46:10;;;;;;;10.83;9.07;;;21.30;99.90;;;;;;5046648;28;20483;-87
2021/09/06 15:48:36;;;;;;;9.27;8.27;;;21.30;99.90;;;;;;5047000;28;20443;-89
2021/09/06 15:51:06;;;;;;;10.67;7.73;;;21.30;99.90;;;;;;5045847;28;20817;-87
2021/09/06 15:53:33;;;;;;;8.03;7.23;;;21.30;99.90;;;;;;5045620;28;20454;-87
2021/09/06 15:56:00;;;;;;;11.50;8.30;;;21.30;99.90;;;;;;5045502;28;20546;-88
2021/09/06 15:58:34;;;;;;;10.97;8.33;;;21.70;99.90;;;;;;5045683;28;20478;-87
2021/09/06 16:01:01;;;;;;;10.37;8.20;;;;;;;;;;5047107;28;20447;-86
2021/09/06 16:03:29;;;;;;;9.40;8.07;;;21.10;99.90;;;;;;5044127;28;20483;-86
2021/09/06 16:05:57;;;;;;;11.53;8.90;;;21.00;99.90;;;;;;5044738;28;20471;-87
2021/09/06 16:08:24;;;;;;;12.67;9.63;;;20.90;99.90;;;;;;5044427;28;20502;-87
2021/09/06 16:10:51;;;;;;;9.90;8.30;;;20.90;99.90;;;;;;5055075;28;20454;-87
2021/09/06 16:13:18;;;;;;;9.70;7.80;;;20.90;99.90;;;;;;5046343;28;20447;-88
2021/09/06 16:15:46;;;;;;;12.27;8.87;;;20.90;99.90;;;;;;5045654;28;20471;-88
2021/09/06 16:18:13;;;;;;;12.63;8.80;;;20.90;99.90;;;;;;5044152;28;20439;-88
2021/09/06 16:20:39;;;;;;;14.10;9.90;;;19.60;99.90;;;;;;5043626;28;20449;-88
2021/09/06 16:23:06;;;;;;;10.13;8.23;;;20.90;99.90;;;;;;5046824;28;20505;-86
2021/09/06 16:25:33;;;;;;;12.97;8.87;;;;;;;;;;5047780;28;20454;-88
2021/09/06 16:28:00;;;;;;;13.33;8.40;;;21.00;99.90;;;;;;5043669;28;20431;-87
2021/09/06 16:30:28;;;;;;;12.20;8.57;;;20.90;99.90;;;;;;5043735;28;20796;-87